createdAt,value
2016-07-19T00:00:34.743Z,0
2016-07-19T00:01:34.744Z,0
2016-07-19T00:02:34.761Z,0
2016-07-19T00:03:34.744Z,0
2016-07-19T00:04:34.770Z,0
2016-07-19T00:05:34.741Z,0
2016-07-19T00:06:34.744Z,0
2016-07-19T00:07:34.742Z,0
2016-07-19T00:08:34.745Z,0
2016-07-19T00:09:34.752Z,0
2016-07-19T00:10:34.743Z,0
2016-07-19T00:11:34.769Z,0
2016-07-19T00:12:34.746Z,0
2016-07-19T00:13:34.752Z,0
2016-07-19T00:14:34.775Z,0
2016-07-19T00:15:34.813Z,0
2016-07-19T00:16:34.749Z,0
2016-07-19T00:17:34.752Z,0
2016-07-19T00:18:34.788Z,0
2016-07-19T00:19:34.782Z,0
2016-07-19T00:20:34.774Z,0
2016-07-19T00:21:34.746Z,0
2016-07-19T00:22:34.773Z,0
2016-07-19T00:23:34.794Z,0
2016-07-19T00:24:34.834Z,0
2016-07-19T00:25:34.773Z,0
2016-07-19T00:26:34.815Z,0
2016-07-19T00:27:34.809Z,0
2016-07-19T00:28:34.806Z,0
2016-07-19T00:29:34.796Z,0
2016-07-19T00:30:34.817Z,0
2016-07-19T00:31:34.813Z,0
2016-07-19T00:32:34.817Z,0
2016-07-19T00:33:34.792Z,0
2016-07-19T00:35:35.069Z,0
2016-07-19T00:36:34.839Z,0
2016-07-19T00:37:34.806Z,0
2016-07-19T00:38:34.782Z,0
2016-07-19T00:39:34.804Z,0
2016-07-19T00:40:34.779Z,0
2016-07-19T00:41:34.776Z,0
2016-07-19T00:42:35.186Z,0
2016-07-19T00:43:34.772Z,0
2016-07-19T00:44:34.808Z,0
2016-07-19T00:45:34.769Z,0
2016-07-19T00:46:34.776Z,0
2016-07-19T00:47:34.818Z,0
2016-07-19T00:48:34.795Z,0
2016-07-19T00:49:34.812Z,0
2016-07-19T00:50:34.808Z,0
2016-07-19T00:51:34.783Z,0
2016-07-19T00:52:34.811Z,0
2016-07-19T00:53:34.812Z,0
2016-07-19T00:54:34.742Z,0
2016-07-19T00:55:34.811Z,0
2016-07-19T00:56:34.810Z,0
2016-07-19T00:57:34.763Z,0
2016-07-19T00:58:34.778Z,0
2016-07-19T00:59:34.766Z,0
2016-07-19T01:00:34.812Z,0
2016-07-19T01:01:34.808Z,0
2016-07-19T01:02:34.815Z,0
2016-07-19T01:03:34.822Z,0
2016-07-19T01:04:35.235Z,0
2016-07-19T01:05:34.839Z,0
2016-07-19T01:06:34.871Z,0
2016-07-19T01:07:34.821Z,0
2016-07-19T01:08:34.842Z,0
2016-07-19T01:09:34.835Z,0
2016-07-19T01:10:34.837Z,0
2016-07-19T01:11:34.787Z,0
2016-07-19T01:12:34.839Z,0
2016-07-19T01:13:34.814Z,0
2016-07-19T01:14:34.868Z,0
2016-07-19T01:15:34.887Z,0
2016-07-19T01:16:34.808Z,0
2016-07-19T01:17:34.809Z,0
2016-07-19T01:18:34.822Z,0
2016-07-19T01:19:34.799Z,0
2016-07-19T01:20:34.786Z,0
2016-07-19T01:21:34.798Z,0
2016-07-19T01:22:35.459Z,0
2016-07-19T01:23:34.962Z,0
2016-07-19T01:24:35.498Z,0
2016-07-19T01:25:34.915Z,0
2016-07-19T01:26:34.976Z,0
2016-07-19T01:27:34.819Z,0
2016-07-19T01:28:34.812Z,0
2016-07-19T01:29:34.806Z,0
2016-07-19T01:30:34.902Z,0
2016-07-19T01:31:34.883Z,0
2016-07-19T01:32:34.842Z,0
2016-07-19T01:33:34.820Z,0
2016-07-19T01:34:34.846Z,0
2016-07-19T01:35:34.855Z,0
2016-07-19T01:36:34.862Z,0
2016-07-19T01:37:34.853Z,0
2016-07-19T01:38:34.839Z,0
2016-07-19T01:39:34.805Z,0
2016-07-19T01:40:34.841Z,0
2016-07-19T01:41:34.874Z,0
2016-07-19T01:42:34.842Z,0
2016-07-19T01:43:34.944Z,0
2016-07-19T01:44:35.547Z,0
2016-07-19T01:45:34.829Z,0
2016-07-19T01:46:34.827Z,0
2016-07-19T01:47:34.787Z,0
2016-07-19T01:48:34.783Z,0
2016-07-19T01:49:34.813Z,0
2016-07-19T01:50:34.843Z,0
2016-07-19T01:51:34.844Z,0
2016-07-19T01:52:34.841Z,0
2016-07-19T01:53:34.903Z,0
2016-07-19T01:54:34.855Z,0
2016-07-19T01:55:34.849Z,0
2016-07-19T01:56:34.830Z,0
2016-07-19T01:57:34.843Z,0
2016-07-19T01:58:34.830Z,0
2016-07-19T01:59:34.858Z,0
2016-07-19T02:00:34.843Z,0
2016-07-19T02:01:34.845Z,0
2016-07-19T02:02:34.852Z,0
2016-07-19T02:03:34.860Z,0
2016-07-19T02:04:34.829Z,0
2016-07-19T02:05:34.853Z,0
2016-07-19T02:06:34.890Z,0
2016-07-19T02:07:34.902Z,0
2016-07-19T02:08:34.862Z,0
2016-07-19T02:09:34.842Z,0
2016-07-19T02:10:34.917Z,0
2016-07-19T02:11:34.926Z,0
2016-07-19T02:12:34.885Z,0
2016-07-19T02:13:34.877Z,0
2016-07-19T02:14:34.914Z,0
2016-07-19T02:15:34.870Z,0
2016-07-19T02:16:34.824Z,0
2016-07-19T02:17:35.067Z,0
2016-07-19T02:18:34.859Z,0
2016-07-19T02:19:34.876Z,0
2016-07-19T02:20:34.836Z,0
2016-07-19T02:21:34.907Z,0
2016-07-19T02:22:34.841Z,0
2016-07-19T02:23:34.874Z,0
2016-07-19T02:24:34.871Z,0
2016-07-19T02:25:34.918Z,0
2016-07-19T02:26:34.878Z,0
2016-07-19T02:27:34.844Z,0
2016-07-19T02:28:34.925Z,0
2016-07-19T02:29:35.058Z,0
2016-07-19T02:30:34.876Z,0
2016-07-19T02:31:34.874Z,0
2016-07-19T02:32:34.991Z,0
2016-07-19T02:33:34.857Z,0
2016-07-19T02:34:35.237Z,0
2016-07-19T02:35:35.011Z,0
2016-07-19T02:36:34.893Z,0
2016-07-19T02:37:34.875Z,0
2016-07-19T02:38:34.887Z,0
2016-07-19T02:39:34.880Z,0
2016-07-19T02:40:34.905Z,0
2016-07-19T02:41:35.585Z,0
2016-07-19T02:42:34.905Z,0
2016-07-19T02:43:34.876Z,0
2016-07-19T02:45:06.114Z,0
2016-07-19T02:45:34.880Z,4
2016-07-19T02:46:34.876Z,4
2016-07-19T02:47:34.964Z,4
2016-07-19T02:48:34.900Z,4
2016-07-19T02:49:34.893Z,0
2016-07-19T02:50:34.866Z,0
2016-07-19T02:51:34.938Z,4
2016-07-19T02:52:35.477Z,4
2016-07-19T02:53:35.626Z,4
2016-07-19T02:54:34.929Z,4
2016-07-19T02:55:34.912Z,4
2016-07-19T02:56:34.935Z,8
2016-07-19T02:57:34.909Z,4
2016-07-19T02:58:34.874Z,8
2016-07-19T02:59:34.912Z,8
2016-07-19T03:00:35.486Z,12
2016-07-19T03:01:34.890Z,12
2016-07-19T03:02:34.905Z,12
2016-07-19T03:03:34.890Z,16
2016-07-19T03:04:35.957Z,16
2016-07-19T03:05:34.939Z,20
2016-07-19T03:06:35.012Z,20
2016-07-19T03:07:34.875Z,24
2016-07-19T03:08:34.879Z,28
2016-07-19T03:09:34.875Z,32
2016-07-19T03:10:35.458Z,36
2016-07-19T03:11:35.238Z,44
2016-07-19T03:12:34.939Z,48
2016-07-19T03:13:34.938Z,56
2016-07-19T03:14:34.939Z,60
2016-07-19T03:15:35.600Z,68
2016-07-19T03:16:35.005Z,76
2016-07-19T03:17:34.938Z,84
2016-07-19T03:18:34.943Z,92
2016-07-19T03:19:34.907Z,104
2016-07-19T03:20:35.008Z,116
2016-07-19T03:21:34.941Z,128
2016-07-19T03:22:34.928Z,136
2016-07-19T03:23:34.910Z,152
2016-07-19T03:24:34.917Z,164
2016-07-19T03:25:34.948Z,184
2016-07-19T03:26:34.963Z,200
2016-07-19T03:27:34.944Z,216
2016-07-19T03:28:34.934Z,232
2016-07-19T03:29:35.003Z,252
2016-07-19T03:30:34.938Z,276
2016-07-19T03:31:34.943Z,292
2016-07-19T03:32:34.947Z,320
2016-07-19T03:33:34.938Z,340
2016-07-19T03:34:35.009Z,364
2016-07-19T03:35:35.034Z,388
2016-07-19T03:36:35.050Z,416
2016-07-19T03:37:34.917Z,440
2016-07-19T03:38:34.936Z,472
2016-07-19T03:39:34.938Z,500
2016-07-19T03:40:34.942Z,528
2016-07-19T03:41:34.976Z,564
2016-07-19T03:42:34.925Z,600
2016-07-19T03:43:34.940Z,644
2016-07-19T03:44:34.940Z,700
2016-07-19T03:45:34.951Z,720
2016-07-19T03:46:34.986Z,740
2016-07-19T03:47:34.971Z,768
2016-07-19T03:48:34.946Z,792
2016-07-19T03:49:34.942Z,828
2016-07-19T03:50:34.949Z,864
2016-07-19T03:51:34.984Z,900
2016-07-19T03:52:34.945Z,944
2016-07-19T03:53:34.933Z,1008
2016-07-19T03:54:34.924Z,1108
2016-07-19T03:55:34.931Z,1204
2016-07-19T03:56:34.943Z,1204
2016-07-19T03:57:34.916Z,1208
2016-07-19T03:58:34.969Z,1196
2016-07-19T03:59:35.869Z,1188
2016-07-19T04:00:35.027Z,1208
2016-07-19T04:01:34.908Z,1244
2016-07-19T04:02:34.937Z,1296
2016-07-19T04:03:34.912Z,1316
2016-07-19T04:04:35.000Z,1340
2016-07-19T04:05:35.009Z,1372
2016-07-19T04:06:34.988Z,1408
2016-07-19T04:07:34.948Z,1440
2016-07-19T04:08:34.962Z,1476
2016-07-19T04:09:35.036Z,1508
2016-07-19T04:10:34.939Z,1540
2016-07-19T04:11:34.909Z,1604
2016-07-19T04:12:34.910Z,1652
2016-07-19T04:13:34.913Z,1688
2016-07-19T04:14:34.910Z,1700
2016-07-19T04:15:34.955Z,1780
2016-07-19T04:16:34.946Z,1820
2016-07-19T04:17:34.911Z,1800
2016-07-19T04:18:35.069Z,1828
2016-07-19T04:19:34.917Z,1824
2016-07-19T04:20:34.944Z,1856
2016-07-19T04:21:34.947Z,1884
2016-07-19T04:22:34.968Z,1916
2016-07-19T04:23:34.999Z,2004
2016-07-19T04:24:34.946Z,2080
2016-07-19T04:25:34.983Z,2052
2016-07-19T04:26:34.933Z,2064
2016-07-19T04:27:34.954Z,2176
2016-07-19T04:28:34.935Z,2164
2016-07-19T04:29:34.974Z,2104
2016-07-19T04:30:34.971Z,2124
2016-07-19T04:31:35.212Z,2148
2016-07-19T04:32:35.004Z,2180
2016-07-19T04:33:34.942Z,2252
2016-07-19T04:34:34.974Z,2300
2016-07-19T04:35:34.953Z,2308
2016-07-19T04:36:34.939Z,2304
2016-07-19T04:37:35.035Z,2328
2016-07-19T04:38:34.942Z,2340
2016-07-19T04:39:34.968Z,2352
2016-07-19T04:40:34.952Z,2376
2016-07-19T04:41:35.094Z,2400
2016-07-19T04:42:34.982Z,2432
2016-07-19T04:43:34.980Z,2436
2016-07-19T04:44:34.971Z,2532
2016-07-19T04:45:34.945Z,2500
2016-07-19T04:46:34.950Z,2524
2016-07-19T04:47:35.022Z,2540
2016-07-19T04:48:34.972Z,2564
2016-07-19T04:49:34.957Z,2664
2016-07-19T04:50:34.993Z,2700
2016-07-19T04:51:34.997Z,2644
2016-07-19T04:52:34.975Z,2648
2016-07-19T04:53:34.982Z,2716
2016-07-19T04:54:35.046Z,2816
2016-07-19T04:55:34.954Z,2772
2016-07-19T04:56:34.983Z,2752
2016-07-19T04:57:35.002Z,2744
2016-07-19T04:58:35.004Z,2756
2016-07-19T04:59:35.055Z,2776
2016-07-19T05:00:35.004Z,2796
2016-07-19T05:01:34.978Z,2812
2016-07-19T05:02:35.006Z,2832
2016-07-19T05:03:35.000Z,2848
2016-07-19T05:04:35.012Z,2872
2016-07-19T05:05:34.997Z,2888
2016-07-19T05:06:34.985Z,2900
2016-07-19T05:07:35.003Z,2920
2016-07-19T05:08:35.038Z,2940
2016-07-19T05:09:35.037Z,2964
2016-07-19T05:10:35.156Z,2984
2016-07-19T05:11:34.994Z,3008
2016-07-19T05:12:35.001Z,3036
2016-07-19T05:13:35.967Z,3044
2016-07-19T05:14:35.001Z,3048
2016-07-19T05:15:34.994Z,3060
2016-07-19T05:16:35.019Z,3068
2016-07-19T05:17:34.990Z,3080
2016-07-19T05:18:34.973Z,3104
2016-07-19T05:19:34.985Z,3116
2016-07-19T05:20:35.043Z,3128
2016-07-19T05:21:35.000Z,3132
2016-07-19T05:22:35.006Z,3152
2016-07-19T05:23:35.008Z,3164
2016-07-19T05:24:35.027Z,3172
2016-07-19T05:25:35.003Z,3188
2016-07-19T05:26:35.002Z,3200
2016-07-19T05:27:35.018Z,3212
2016-07-19T05:28:35.064Z,3220
2016-07-19T05:29:35.807Z,3232
2016-07-19T05:30:35.034Z,3248
2016-07-19T05:31:35.124Z,3260
2016-07-19T05:32:34.999Z,3276
2016-07-19T05:33:35.005Z,3288
2016-07-19T05:34:35.061Z,3304
2016-07-19T05:35:35.083Z,3320
2016-07-19T05:36:35.107Z,3336
2016-07-19T05:37:35.053Z,3344
2016-07-19T05:38:35.090Z,3360
2016-07-19T05:39:35.041Z,3376
2016-07-19T05:40:35.036Z,3388
2016-07-19T05:41:35.022Z,3404
2016-07-19T05:42:35.070Z,3420
2016-07-19T05:43:35.124Z,3436
2016-07-19T05:44:35.129Z,3452
2016-07-19T05:45:35.036Z,3464
2016-07-19T05:46:35.040Z,3488
2016-07-19T05:47:35.049Z,3508
2016-07-19T05:48:35.056Z,3532
2016-07-19T05:49:35.035Z,3560
2016-07-19T05:50:35.038Z,3584
2016-07-19T05:51:35.034Z,3612
2016-07-19T05:52:35.066Z,3636
2016-07-19T05:53:35.039Z,3664
2016-07-19T05:54:35.037Z,3692
2016-07-19T05:55:35.025Z,3720
2016-07-19T05:56:35.018Z,3748
2016-07-19T05:57:35.041Z,3788
2016-07-19T05:58:35.664Z,3824
2016-07-19T05:59:35.041Z,3864
2016-07-19T06:00:35.061Z,3904
2016-07-19T06:01:35.058Z,3944
2016-07-19T06:02:36.935Z,3988
2016-07-19T06:03:35.272Z,4024
2016-07-19T06:04:35.036Z,4068
2016-07-19T06:05:35.035Z,4108
2016-07-19T06:06:35.350Z,4136
2016-07-19T06:07:35.037Z,4168
2016-07-19T06:08:35.037Z,4208
2016-07-19T06:09:34.978Z,4240
2016-07-19T06:10:35.016Z,4268
2016-07-19T06:11:35.022Z,4304
2016-07-19T06:12:35.037Z,4348
2016-07-19T06:13:35.038Z,4376
2016-07-19T06:14:35.044Z,4400
2016-07-19T06:15:35.087Z,4428
2016-07-19T06:16:35.067Z,4452
2016-07-19T06:17:35.051Z,4476
2016-07-19T06:18:35.097Z,4504
2016-07-19T06:19:35.061Z,4528
2016-07-19T06:20:35.092Z,4552
2016-07-19T06:21:35.072Z,4584
2016-07-19T06:22:35.110Z,4600
2016-07-19T06:23:35.105Z,4628
2016-07-19T06:24:35.062Z,4652
2016-07-19T06:25:35.073Z,4676
2016-07-19T06:26:35.060Z,4700
2016-07-19T06:27:35.260Z,4720
2016-07-19T06:28:35.094Z,4740
2016-07-19T06:29:35.070Z,4764
2016-07-19T06:30:35.745Z,4784
2016-07-19T06:31:35.074Z,4808
2016-07-19T06:32:35.073Z,4828
2016-07-19T06:33:35.152Z,4848
2016-07-19T06:34:35.070Z,4868
2016-07-19T06:35:35.151Z,4892
2016-07-19T06:36:35.068Z,4908
2016-07-19T06:37:35.103Z,4928
2016-07-19T06:38:35.083Z,4936
2016-07-19T06:39:35.090Z,4964
2016-07-19T06:40:35.115Z,4988
2016-07-19T06:41:35.103Z,5012
2016-07-19T06:42:36.126Z,5032
2016-07-19T06:43:35.139Z,5048
2016-07-19T06:44:35.102Z,5068
2016-07-19T06:45:35.111Z,5096
2016-07-19T06:46:34.851Z,7672
2016-07-19T06:47:35.030Z,16232
2016-07-19T06:48:35.064Z,29024
2016-07-19T06:49:34.994Z,43520
2016-07-19T06:50:35.420Z,54528
2016-07-19T06:51:34.878Z,58880
2016-07-19T06:52:34.849Z,57600
2016-07-19T06:53:34.891Z,57888
2016-07-19T06:54:35.392Z,59520
2016-07-19T06:55:34.845Z,59904
2016-07-19T06:56:34.835Z,58176
2016-07-19T06:57:34.881Z,52288
2016-07-19T06:58:34.967Z,46272
2016-07-19T06:59:35.008Z,44768
2016-07-19T07:00:35.056Z,48224
2016-07-19T07:01:35.171Z,53632
2016-07-19T07:02:34.990Z,56480
2016-07-19T07:03:35.191Z,54912
2016-07-19T07:04:35.011Z,52608
2016-07-19T07:05:35.023Z,52448
2016-07-19T07:06:35.043Z,53632
2016-07-19T07:07:34.932Z,53952
2016-07-19T07:08:35.100Z,52192
2016-07-19T07:09:35.137Z,48576
2016-07-19T07:10:35.104Z,45792
2016-07-19T07:11:35.162Z,47232
2016-07-19T07:12:35.248Z,52480
2016-07-19T07:13:35.207Z,57952
2016-07-19T07:14:35.286Z,61312
2016-07-19T07:15:35.259Z,62912
2016-07-19T07:16:35.891Z,64576
2016-07-19T07:17:35.388Z,65952
2016-07-19T07:18:36.036Z,66912
2016-07-19T07:19:35.369Z,67776
2016-07-19T07:20:35.341Z,71008
2016-07-19T07:21:35.460Z,71776
2016-07-19T07:22:35.995Z,66432
2016-07-19T07:23:35.401Z,59552
2016-07-19T07:24:35.412Z,54496
2016-07-19T07:25:35.354Z,52992
2016-07-19T07:26:35.832Z,55232
2016-07-19T07:27:35.911Z,58464
2016-07-19T07:28:35.892Z,61888
2016-07-19T07:29:35.639Z,63584
2016-07-19T07:30:35.898Z,64896
2016-07-19T07:31:35.776Z,66144
2016-07-19T07:32:35.101Z,68544
2016-07-19T07:33:35.377Z,69216
2016-07-19T07:34:35.790Z,67552
2016-07-19T07:35:36.186Z,63872
2016-07-19T07:36:35.402Z,61376
2016-07-19T07:37:35.843Z,61248
2016-07-19T07:38:41.027Z,63872
2016-07-19T07:39:35.288Z,66624
2016-07-19T07:40:35.376Z,69120
2016-07-19T07:41:35.417Z,70336
2016-07-19T07:42:35.170Z,71232
2016-07-19T07:43:35.156Z,69888
2016-07-19T07:44:35.148Z,67936
2016-07-19T07:45:35.161Z,68064
2016-07-19T07:46:35.167Z,69920
2016-07-19T07:47:35.254Z,72480
2016-07-19T07:48:35.222Z,71680
2016-07-19T07:49:35.253Z,68224
2016-07-19T07:50:35.882Z,65440
2016-07-19T07:51:36.151Z,64416
2016-07-19T07:52:35.159Z,63328
2016-07-19T07:53:35.349Z,62240
2016-07-19T07:54:35.164Z,60992
2016-07-19T07:55:35.943Z,60288
2016-07-19T07:56:35.233Z,61024
2016-07-19T07:57:35.178Z,63776
2016-07-19T07:58:35.168Z,68352
2016-07-19T07:59:35.132Z,71648
2016-07-19T08:00:35.194Z,65184
2016-07-19T08:01:36.459Z,37216
2016-07-19T08:02:35.191Z,13152
2016-07-19T08:03:35.177Z,5612
2016-07-19T08:04:35.202Z,5188
2016-07-19T08:05:35.226Z,5048
2016-07-19T08:06:35.197Z,4972
2016-07-19T08:07:35.271Z,4912
2016-07-19T08:08:35.166Z,4872
2016-07-19T08:09:35.187Z,4848
2016-07-19T08:10:35.242Z,4828
2016-07-19T08:11:35.230Z,4808
2016-07-19T08:12:35.240Z,4788
2016-07-19T08:14:19.305Z,4764
2016-07-19T08:14:35.169Z,4760
2016-07-19T08:15:35.180Z,4744
2016-07-19T08:16:35.171Z,4728
2016-07-19T08:17:35.224Z,4704
2016-07-19T08:18:35.230Z,4688
2016-07-19T08:19:35.252Z,4672
2016-07-19T08:20:35.191Z,4656
2016-07-19T08:21:35.224Z,4640
2016-07-19T08:22:35.343Z,4628
2016-07-19T08:23:35.283Z,4620
2016-07-19T08:24:35.279Z,4616
2016-07-19T08:25:35.304Z,4608
2016-07-19T08:26:35.233Z,4600
2016-07-19T08:27:35.420Z,4592
2016-07-19T08:28:35.301Z,4580
2016-07-19T08:29:35.209Z,4580
2016-07-19T08:30:35.336Z,4576
2016-07-19T08:31:35.194Z,4576
2016-07-19T08:32:35.194Z,4568
2016-07-19T08:33:35.239Z,4564
2016-07-19T08:34:35.312Z,4560
2016-07-19T08:35:35.223Z,4548
2016-07-19T08:36:35.207Z,4544
2016-07-19T08:37:35.195Z,4532
2016-07-19T08:38:35.228Z,4520
2016-07-19T08:39:35.196Z,4512
2016-07-19T08:40:35.220Z,4500
2016-07-19T08:41:35.197Z,4492
2016-07-19T08:42:35.213Z,4480
2016-07-19T08:43:35.178Z,4468
2016-07-19T08:44:35.187Z,4460
2016-07-19T08:45:35.229Z,4444
2016-07-19T08:46:35.303Z,4432
2016-07-19T08:47:35.262Z,4424
2016-07-19T08:48:35.258Z,4424
2016-07-19T08:49:35.331Z,4424
2016-07-19T08:50:35.262Z,4424
2016-07-19T08:51:35.268Z,4420
2016-07-19T08:52:35.321Z,4416
2016-07-19T08:53:35.193Z,4412
2016-07-19T08:54:35.275Z,4400
2016-07-19T08:55:35.196Z,4392
2016-07-19T08:56:35.245Z,4380
2016-07-19T08:57:35.310Z,4368
2016-07-19T08:58:35.248Z,4352
2016-07-19T08:59:35.275Z,4344
2016-07-19T09:00:35.242Z,4332
2016-07-19T09:01:35.255Z,4328
2016-07-19T09:02:35.316Z,4320
2016-07-19T09:03:35.273Z,4316
2016-07-19T09:04:35.188Z,4308
2016-07-19T09:05:35.436Z,4300
2016-07-19T09:06:35.234Z,4288
2016-07-19T09:07:35.213Z,4280
2016-07-19T09:08:35.550Z,4260
2016-07-19T09:09:35.224Z,4248
2016-07-19T09:10:35.232Z,4240
2016-07-19T09:11:35.425Z,4224
2016-07-19T09:12:35.253Z,4200
2016-07-19T09:13:35.224Z,4180
2016-07-19T09:14:35.225Z,4164
2016-07-19T09:15:35.249Z,4152
2016-07-19T09:16:35.290Z,4144
2016-07-19T09:17:35.322Z,4148
2016-07-19T09:18:35.386Z,4148
2016-07-19T09:19:35.320Z,4156
2016-07-19T09:20:35.358Z,4160
2016-07-19T09:21:35.273Z,4168
2016-07-19T09:22:35.331Z,4172
2016-07-19T09:23:35.285Z,4168
2016-07-19T09:24:35.291Z,4164
2016-07-19T09:25:35.290Z,4160
2016-07-19T09:26:35.388Z,4160
2016-07-19T09:27:35.257Z,4156
2016-07-19T09:28:35.295Z,4156
2016-07-19T09:29:35.578Z,4156
2016-07-19T09:30:35.275Z,4156
2016-07-19T09:31:35.751Z,4156
2016-07-19T09:32:35.457Z,4152
2016-07-19T09:33:35.267Z,4152
2016-07-19T09:34:35.253Z,4148
2016-07-19T09:35:35.290Z,4148
2016-07-19T09:36:35.237Z,4144
2016-07-19T09:37:35.294Z,4140
2016-07-19T09:38:35.421Z,4136
2016-07-19T09:39:35.276Z,4124
2016-07-19T09:40:35.265Z,4120
2016-07-19T09:41:35.289Z,4116
2016-07-19T09:42:35.294Z,4120
2016-07-19T09:43:35.306Z,4116
2016-07-19T09:44:35.352Z,4116
2016-07-19T09:45:35.289Z,4108
2016-07-19T09:46:35.320Z,4100
2016-07-19T09:47:35.430Z,4088
2016-07-19T09:48:35.305Z,4084
2016-07-19T09:49:35.289Z,4084
2016-07-19T09:50:35.642Z,4084
2016-07-19T09:51:35.356Z,4076
2016-07-19T09:52:35.304Z,4064
2016-07-19T09:53:36.615Z,4048
2016-07-19T09:54:35.341Z,4036
2016-07-19T09:55:35.289Z,4032
2016-07-19T09:56:35.742Z,4024
2016-07-19T09:57:36.151Z,4020
2016-07-19T09:58:35.574Z,4012
2016-07-19T09:59:36.166Z,4004
2016-07-19T10:00:35.316Z,3988
2016-07-19T10:01:35.257Z,3980
2016-07-19T10:02:35.337Z,3968
2016-07-19T10:03:35.306Z,3964
2016-07-19T10:04:35.361Z,3952
2016-07-19T10:05:35.336Z,3940
2016-07-19T10:06:35.323Z,3936
2016-07-19T10:07:35.334Z,3924
2016-07-19T10:08:35.897Z,3912
2016-07-19T10:09:35.297Z,3900
2016-07-19T10:10:35.299Z,3888
2016-07-19T10:11:35.402Z,3884
2016-07-19T10:12:35.340Z,3876
2016-07-19T10:13:35.841Z,3876
2016-07-19T10:14:35.396Z,3876
2016-07-19T10:15:35.400Z,3868
2016-07-19T10:16:35.931Z,3864
2016-07-19T10:17:35.527Z,3864
2016-07-19T10:18:35.408Z,3860
2016-07-19T10:19:35.941Z,3852
2016-07-19T10:20:35.328Z,3848
2016-07-19T10:21:35.312Z,3844
2016-07-19T10:22:35.292Z,3840
2016-07-19T10:23:35.364Z,3836
2016-07-19T10:24:36.379Z,3828
2016-07-19T10:25:35.304Z,3824
2016-07-19T10:26:35.531Z,3816
2016-07-19T10:27:35.317Z,3812
2016-07-19T10:28:35.328Z,3808
2016-07-19T10:29:36.525Z,3800
2016-07-19T10:30:35.314Z,3796
2016-07-19T10:31:35.364Z,3792
2016-07-19T10:32:35.561Z,3784
2016-07-19T10:33:35.626Z,3776
2016-07-19T10:34:35.325Z,3772
2016-07-19T10:35:35.358Z,3764
2016-07-19T10:36:35.380Z,3752
2016-07-19T10:37:35.318Z,3748
2016-07-19T10:38:35.334Z,3740
2016-07-19T10:39:35.377Z,3736
2016-07-19T10:40:35.352Z,3736
2016-07-19T10:41:35.522Z,3736
2016-07-19T10:42:36.672Z,3732
2016-07-19T10:43:35.323Z,3724
2016-07-19T10:44:35.430Z,3720
2016-07-19T10:45:35.370Z,3716
2016-07-19T10:46:35.330Z,3712
2016-07-19T10:47:36.051Z,3704
2016-07-19T10:48:35.385Z,3700
2016-07-19T10:49:35.353Z,3696
2016-07-19T10:50:35.412Z,3692
2016-07-19T10:51:35.380Z,3688
2016-07-19T10:52:35.351Z,3688
2016-07-19T10:53:35.327Z,3684
2016-07-19T10:54:35.410Z,3680
2016-07-19T10:55:35.371Z,3672
2016-07-19T10:56:35.394Z,3664
2016-07-19T10:57:35.370Z,3660
2016-07-19T10:58:35.384Z,3660
2016-07-19T10:59:35.447Z,3656
2016-07-19T11:00:35.384Z,3656
2016-07-19T11:01:35.441Z,3648
2016-07-19T11:02:35.379Z,3640
2016-07-19T11:03:35.372Z,3628
2016-07-19T11:04:35.353Z,3624
2016-07-19T11:05:35.367Z,3620
2016-07-19T11:06:35.410Z,3616
2016-07-19T11:07:35.584Z,3616
2016-07-19T11:08:35.387Z,3612
2016-07-19T11:09:35.465Z,3604
2016-07-19T11:10:35.365Z,3592
2016-07-19T11:11:35.400Z,3588
2016-07-19T11:12:35.456Z,3588
2016-07-19T11:13:35.401Z,3588
2016-07-19T11:14:35.950Z,3588
2016-07-19T11:15:35.531Z,3588
2016-07-19T11:16:35.377Z,3588
2016-07-19T11:17:35.376Z,3580
2016-07-19T11:18:35.378Z,3580
2016-07-19T11:19:35.368Z,3576
2016-07-19T11:20:35.362Z,3572
2016-07-19T11:21:35.321Z,3568
2016-07-19T11:22:35.449Z,3564
2016-07-19T11:23:35.430Z,3556
2016-07-19T11:24:35.388Z,3556
2016-07-19T11:25:36.085Z,3540
2016-07-19T11:26:35.394Z,3536
2016-07-19T11:27:35.420Z,3528
2016-07-19T11:28:35.537Z,3528
2016-07-19T11:29:35.482Z,3516
2016-07-19T11:30:35.421Z,3508
2016-07-19T11:31:35.440Z,3500
2016-07-19T11:32:35.421Z,3496
2016-07-19T11:33:35.427Z,3492
2016-07-19T11:34:35.462Z,3492
2016-07-19T11:35:35.419Z,3492
2016-07-19T11:36:35.421Z,3492
2016-07-19T11:37:35.418Z,3484
2016-07-19T11:38:35.433Z,3484
2016-07-19T11:39:35.433Z,3476
2016-07-19T11:40:36.086Z,3472
2016-07-19T11:41:35.400Z,3468
2016-07-19T11:42:35.449Z,3460
2016-07-19T11:43:35.447Z,3456
2016-07-19T11:44:36.047Z,3448
2016-07-19T11:45:35.482Z,3444
2016-07-19T11:46:36.079Z,3440
2016-07-19T11:47:35.446Z,3432
2016-07-19T11:48:35.451Z,3428
2016-07-19T11:49:35.457Z,3428
2016-07-19T11:50:35.425Z,3428
2016-07-19T11:51:35.454Z,3432
2016-07-19T11:52:35.500Z,3432
2016-07-19T11:53:35.471Z,3424
2016-07-19T11:54:35.443Z,3412
2016-07-19T11:55:35.506Z,3408
2016-07-19T11:56:35.453Z,3408
2016-07-19T11:57:35.446Z,3408
2016-07-19T11:58:35.448Z,3408
2016-07-19T11:59:35.430Z,3404
2016-07-19T12:00:35.444Z,3400
2016-07-19T12:01:35.471Z,3392
2016-07-19T12:02:35.422Z,3384
2016-07-19T12:03:35.476Z,3388
2016-07-19T12:04:35.481Z,3388
2016-07-19T12:05:35.423Z,3388
2016-07-19T12:06:35.463Z,3392
2016-07-19T12:07:35.452Z,3392
2016-07-19T12:08:35.448Z,3388
2016-07-19T12:09:35.443Z,3388
2016-07-19T12:10:35.477Z,3384
2016-07-19T12:11:36.100Z,3384
2016-07-19T12:12:35.432Z,3388
2016-07-19T12:13:35.525Z,3388
2016-07-19T12:14:35.476Z,3384
2016-07-19T12:15:35.511Z,3384
2016-07-19T12:16:35.488Z,3384
2016-07-19T12:17:35.494Z,3380
2016-07-19T12:18:35.620Z,3376
2016-07-19T12:19:35.508Z,3376
2016-07-19T12:20:35.986Z,3376
2016-07-19T12:21:35.483Z,3372
2016-07-19T12:22:35.482Z,3376
2016-07-19T12:23:35.493Z,3376
2016-07-19T12:24:35.486Z,3376
2016-07-19T12:25:35.480Z,3372
2016-07-19T12:26:35.465Z,3372
2016-07-19T12:27:35.494Z,3364
2016-07-19T12:28:35.512Z,3364
2016-07-19T12:29:35.456Z,3364
2016-07-19T12:30:35.511Z,3368
2016-07-19T12:31:35.469Z,3364
2016-07-19T12:32:35.450Z,3364
2016-07-19T12:33:35.507Z,3364
2016-07-19T12:34:35.449Z,3348
2016-07-19T12:35:35.488Z,3364
2016-07-19T12:36:35.481Z,3360
2016-07-19T12:37:35.476Z,3352
2016-07-19T12:38:35.548Z,3352
2016-07-19T12:39:35.586Z,3356
2016-07-19T12:40:35.508Z,3356
2016-07-19T12:41:35.543Z,3356
2016-07-19T12:42:35.471Z,3356
2016-07-19T12:43:35.477Z,3356
2016-07-19T12:44:35.554Z,3356
2016-07-19T12:45:35.488Z,3356
2016-07-19T12:46:35.508Z,3352
2016-07-19T12:47:35.508Z,3356
2016-07-19T12:48:35.506Z,3352
2016-07-19T12:49:35.490Z,3352
2016-07-19T12:50:35.773Z,3344
2016-07-19T12:51:35.549Z,3340
2016-07-19T12:52:35.497Z,3332
2016-07-19T12:53:35.541Z,3332
2016-07-19T12:54:35.544Z,3328
2016-07-19T12:55:35.478Z,3328
2016-07-19T12:56:35.556Z,3324
2016-07-19T12:57:35.635Z,3320
2016-07-19T12:58:35.581Z,3320
2016-07-19T12:59:35.574Z,3320
2016-07-19T13:00:35.552Z,3312
2016-07-19T13:01:35.575Z,3312
2016-07-19T13:02:35.522Z,3312
2016-07-19T13:03:35.508Z,3312
2016-07-19T13:04:35.484Z,3312
2016-07-19T13:05:35.514Z,3316
2016-07-19T13:06:35.633Z,3316
2016-07-19T13:07:35.593Z,3312
2016-07-19T13:08:35.533Z,3308
2016-07-19T13:09:35.507Z,3304
2016-07-19T13:10:35.524Z,3304
2016-07-19T13:11:35.549Z,3304
2016-07-19T13:12:35.640Z,3300
2016-07-19T13:13:35.567Z,3300
2016-07-19T13:14:35.541Z,3296
2016-07-19T13:15:35.502Z,3300
2016-07-19T13:16:35.523Z,3300
2016-07-19T13:17:35.548Z,3300
2016-07-19T13:18:35.582Z,3300
2016-07-19T13:19:35.541Z,3300
2016-07-19T13:20:35.562Z,3300
2016-07-19T13:21:35.509Z,3296
2016-07-19T13:22:35.527Z,3296
2016-07-19T13:23:35.595Z,3288
2016-07-19T13:24:35.542Z,3288
2016-07-19T13:25:35.538Z,3288
2016-07-19T13:26:35.514Z,3288
2016-07-19T13:27:35.565Z,3288
2016-07-19T13:28:35.576Z,3288
2016-07-19T13:29:35.552Z,3288
2016-07-19T13:30:35.514Z,3288
2016-07-19T13:31:35.518Z,3288
2016-07-19T13:32:35.512Z,3288
2016-07-19T13:33:35.590Z,3288
2016-07-19T13:34:35.541Z,3292
2016-07-19T13:35:35.546Z,3296
2016-07-19T13:36:35.581Z,3300
2016-07-19T13:37:35.547Z,3304